createdAt,value
2023-04-10T00:02:06.813Z,3.22
2023-04-10T00:04:36.162Z,3.24
2023-04-10T00:07:05.792Z,3.15
2023-04-10T00:09:34.984Z,3.16
2023-04-10T00:12:04.380Z,3.18
2023-04-10T00:14:33.832Z,3.21
2023-04-10T00:17:03.162Z,3.16
2023-04-10T00:19:33.658Z,3.12
2023-04-10T00:22:03.069Z,3.12
2023-04-10T00:24:32.319Z,3.13
2023-04-10T00:27:01.769Z,3.16
2023-04-10T00:29:31.142Z,3.16
2023-04-10T00:32:00.542Z,3.11
2023-04-10T00:34:29.819Z,3.08
2023-04-10T00:37:00.762Z,3.08
2023-04-10T00:39:30.053Z,3.08
2023-04-10T00:41:59.876Z,3.14
2023-04-10T00:44:29.655Z,3.08
2023-04-10T00:46:59.116Z,3.06
2023-04-10T00:49:28.530Z,3.03
2023-04-10T00:51:59.879Z,2.99
2023-04-10T00:54:29.673Z,3.00
2023-04-10T00:56:59.792Z,3.00
2023-04-10T00:59:29.267Z,2.98
2023-04-10T01:01:59.252Z,2.96
2023-04-10T01:04:29.863Z,3.00
2023-04-10T01:07:10.497Z,2.94
2023-04-10T01:09:46.607Z,2.90
2023-04-10T01:12:30.181Z,2.89
2023-04-10T01:15:08.003Z,2.90
2023-04-10T01:17:45.038Z,2.93
2023-04-10T01:20:17.148Z,2.93
2023-04-10T01:23:07.765Z,2.96
2023-04-10T01:25:42.589Z,2.92
2023-04-10T01:28:44.636Z,2.88
2023-04-10T01:31:21.038Z,2.83
2023-04-10T01:33:55.381Z,2.80
2023-04-10T01:36:28.252Z,2.84
2023-04-10T01:38:59.802Z,2.83
2023-04-10T01:41:30.732Z,2.84
2023-04-10T01:44:01.681Z,2.78
2023-04-10T01:46:33.998Z,2.74
2023-04-10T01:49:05.363Z,2.74
2023-04-10T01:51:35.676Z,2.74
2023-04-10T01:54:10.549Z,2.70
2023-04-10T01:56:40.040Z,2.70
2023-04-10T01:59:09.979Z,2.69
2023-04-10T02:01:40.742Z,2.70
2023-04-10T02:04:11.171Z,2.65
2023-04-10T02:06:51.413Z,2.68
2023-04-10T02:09:24.550Z,2.66
2023-04-10T02:12:00.171Z,2.64
2023-04-10T02:14:35.223Z,2.62
2023-04-10T02:17:06.020Z,2.66
2023-04-10T02:19:36.930Z,2.64
2023-04-10T02:22:07.220Z,2.62
2023-04-10T02:24:37.110Z,2.57
2023-04-10T02:27:06.362Z,2.59
2023-04-10T02:29:35.895Z,2.52
2023-04-10T02:32:07.793Z,2.49
2023-04-10T02:34:37.279Z,2.52
2023-04-10T02:37:07.992Z,2.47
2023-04-10T02:39:37.422Z,2.48
2023-04-10T02:42:06.849Z,2.47
2023-04-10T02:44:36.835Z,2.45
2023-04-10T02:47:08.275Z,2.42
2023-04-10T02:49:39.825Z,2.44
2023-04-10T02:52:15.031Z,2.49
2023-04-10T02:54:44.382Z,2.45
2023-04-10T02:57:13.635Z,2.37
2023-04-10T02:59:43.567Z,2.36
2023-04-10T03:02:14.392Z,2.43
2023-04-10T03:04:44.230Z,2.39
2023-04-10T03:07:14.579Z,2.42
2023-04-10T03:09:44.099Z,2.41
2023-04-10T03:12:13.229Z,2.40
2023-04-10T03:14:42.736Z,2.37
2023-04-10T03:17:12.282Z,2.37
2023-04-10T03:19:43.503Z,2.39
2023-04-10T03:22:12.690Z,2.48
2023-04-10T03:24:43.057Z,2.42
2023-04-10T03:27:12.256Z,2.35
2023-04-10T03:29:41.668Z,2.33
2023-04-10T03:32:11.290Z,2.33
2023-04-10T03:34:42.068Z,2.33
2023-04-10T03:37:11.312Z,2.32
2023-04-10T03:39:40.845Z,2.31
2023-04-10T03:42:10.082Z,2.31
2023-04-10T03:44:39.697Z,2.30
2023-04-10T03:47:10.387Z,2.26
2023-04-10T03:49:39.889Z,2.21
2023-04-10T03:52:11.004Z,2.18
2023-04-10T03:54:41.236Z,2.19
2023-04-10T03:57:18.725Z,2.18
2023-04-10T03:59:48.427Z,2.18
2023-04-10T04:02:17.972Z,2.15
2023-04-10T04:04:47.547Z,2.16
2023-04-10T04:07:44.316Z,2.13
2023-04-10T04:10:35.446Z,2.09
2023-04-10T04:13:25.302Z,2.08
2023-04-10T04:16:21.008Z,2.09
2023-04-10T04:18:58.795Z,2.07
2023-04-10T04:21:35.328Z,2.12
2023-04-10T04:24:26.142Z,2.19
2023-04-10T04:27:01.541Z,2.26
2023-04-10T04:29:52.850Z,2.18
2023-04-10T04:32:28.086Z,2.20
2023-04-10T04:35:19.935Z,2.19
2023-04-10T04:38:20.227Z,2.17
2023-04-10T04:41:03.474Z,2.20
2023-04-10T04:43:53.547Z,2.25
2023-04-10T04:46:44.650Z,2.28
2023-04-10T04:49:33.075Z,2.36
2023-04-10T04:52:37.555Z,2.37
2023-04-10T04:55:45.777Z,2.42
2023-04-10T04:58:39.056Z,2.49
2023-04-10T05:01:15.915Z,2.56
2023-04-10T05:04:12.257Z,2.71
2023-04-10T05:07:08.166Z,2.75
2023-04-10T05:09:56.815Z,2.89
2023-04-10T05:12:45.714Z,2.94
2023-04-10T05:15:29.450Z,2.99
2023-04-10T05:18:28.083Z,3.07
2023-04-10T05:21:12.304Z,3.16
2023-04-10T05:24:04.575Z,3.27
2023-04-10T05:26:45.159Z,3.40
2023-04-10T05:29:33.569Z,3.57
2023-04-10T05:32:16.226Z,3.70
2023-04-10T05:35:06.940Z,3.81
2023-04-10T05:37:50.179Z,3.92
2023-04-10T05:40:38.645Z,4.06
2023-04-10T05:43:30.875Z,4.15
2023-04-10T05:46:25.851Z,4.28
2023-04-10T05:49:17.748Z,4.41
2023-04-10T05:52:05.844Z,4.53
2023-04-10T05:54:53.548Z,4.62
2023-04-10T05:57:35.352Z,4.72
2023-04-10T06:00:04.946Z,4.83
2023-04-10T06:02:43.807Z,4.94
2023-04-10T06:05:23.980Z,5.06
2023-04-10T06:08:01.223Z,5.15
2023-04-10T06:10:30.685Z,5.24
2023-04-10T06:13:01.033Z,5.36
2023-04-10T06:15:31.065Z,5.47
2023-04-10T06:18:00.760Z,5.55
2023-04-10T06:20:31.314Z,5.66
2023-04-10T06:23:01.224Z,5.78
2023-04-10T06:25:30.817Z,5.87
2023-04-10T06:28:01.833Z,5.97
2023-04-10T06:30:31.200Z,6.08
2023-04-10T06:33:00.989Z,6.17
2023-04-10T06:35:31.900Z,6.28
2023-04-10T06:38:01.499Z,6.38
2023-04-10T06:40:34.136Z,6.51
2023-04-10T06:43:03.806Z,6.63
2023-04-10T06:45:40.034Z,6.66
2023-04-10T06:48:09.643Z,6.76
2023-04-10T06:50:40.366Z,6.91
2023-04-10T06:53:09.976Z,7.04
2023-04-10T06:55:39.454Z,7.13
2023-04-10T06:58:08.804Z,7.22
2023-04-10T07:00:38.627Z,7.36
2023-04-10T07:03:08.196Z,7.46
2023-04-10T07:05:37.958Z,7.57
2023-04-10T07:08:10.215Z,7.69
2023-04-10T07:10:39.502Z,7.80
2023-04-10T07:13:09.200Z,7.89
2023-04-10T07:15:38.410Z,7.99
2023-04-10T07:18:07.869Z,8.10
2023-04-10T07:20:37.139Z,8.22
2023-04-10T07:23:06.733Z,8.36
2023-04-10T07:25:37.537Z,8.49
2023-04-10T07:28:07.281Z,8.59
2023-04-10T07:30:37.028Z,8.71
2023-04-10T07:33:07.000Z,8.82
2023-04-10T07:35:36.830Z,8.95
2023-04-10T07:38:06.566Z,9.05
2023-04-10T07:40:37.465Z,9.18
2023-04-10T07:43:07.003Z,9.29
2023-04-10T07:45:36.750Z,9.40
2023-04-10T07:48:06.912Z,9.52
2023-04-10T07:50:36.389Z,9.66
2023-04-10T07:53:08.193Z,9.74
2023-04-10T07:55:41.859Z,9.85
2023-04-10T07:58:11.924Z,9.97
2023-04-10T08:00:41.135Z,10.05
2023-04-10T08:03:10.684Z,10.16
2023-04-10T08:05:40.060Z,10.25
2023-04-10T08:08:09.642Z,10.36
2023-04-10T08:10:40.408Z,10.46
2023-04-10T08:13:10.560Z,10.56
2023-04-10T08:15:39.767Z,10.66
2023-04-10T08:18:09.179Z,10.74
2023-04-10T08:20:38.821Z,10.80
2023-04-10T08:23:19.904Z,10.90
2023-04-10T08:25:51.902Z,10.99
2023-04-10T08:28:21.446Z,11.07
2023-04-10T08:30:50.601Z,11.11
2023-04-10T08:33:19.946Z,11.15
2023-04-10T08:35:49.715Z,11.24
2023-04-10T08:38:21.532Z,11.31
2023-04-10T08:40:52.372Z,11.39
2023-04-10T08:43:22.190Z,11.46
2023-04-10T08:45:52.172Z,11.50
2023-04-10T08:48:22.898Z,11.51
2023-04-10T08:50:52.965Z,11.59
2023-04-10T08:53:25.447Z,11.62
2023-04-10T08:55:56.740Z,11.68
2023-04-10T08:58:26.652Z,11.74
2023-04-10T09:00:56.258Z,11.81
2023-04-10T09:03:26.856Z,11.87
2023-04-10T09:05:57.977Z,11.94
2023-04-10T09:08:27.713Z,12.02
2023-04-10T09:10:58.230Z,12.10
2023-04-10T09:13:41.426Z,12.17
2023-04-10T09:16:11.656Z,12.22
2023-04-10T09:18:46.699Z,12.29
2023-04-10T09:21:17.744Z,12.35
2023-04-10T09:23:48.444Z,12.45
2023-04-10T09:26:30.005Z,12.52
2023-04-10T09:29:01.760Z,12.56
2023-04-10T09:31:32.689Z,12.60
2023-04-10T09:34:14.147Z,12.64
2023-04-10T09:36:44.061Z,12.74
2023-04-10T09:39:14.502Z,12.75
2023-04-10T09:41:52.857Z,12.83
2023-04-10T09:44:35.166Z,12.89
2023-04-10T09:47:19.221Z,12.92
2023-04-10T09:49:49.511Z,12.95
2023-04-10T09:52:22.693Z,13.00
2023-04-10T09:54:52.362Z,13.02
2023-04-10T09:57:23.306Z,13.07
2023-04-10T09:59:53.800Z,13.14
2023-04-10T10:02:24.917Z,13.23
2023-04-10T10:04:55.075Z,13.29
2023-04-10T10:07:25.613Z,13.36
2023-04-10T10:09:55.610Z,13.43
2023-04-10T10:12:29.896Z,13.47
2023-04-10T10:15:08.784Z,13.48
2023-04-10T10:17:44.964Z,13.52
2023-04-10T10:20:19.088Z,13.60
2023-04-10T10:22:51.485Z,13.65
2023-04-10T10:25:22.000Z,13.65
2023-04-10T10:27:54.906Z,13.71
2023-04-10T10:30:29.937Z,13.80
2023-04-10T10:33:01.023Z,13.82
2023-04-10T10:35:33.192Z,13.85
2023-04-10T10:38:03.967Z,13.88
2023-04-10T10:40:39.854Z,13.90
2023-04-10T10:43:17.589Z,13.95
2023-04-10T10:45:53.746Z,14.00
2023-04-10T10:48:23.117Z,14.04
2023-04-10T10:50:55.045Z,14.11
2023-04-10T10:53:41.461Z,14.17
2023-04-10T10:56:37.218Z,14.24
2023-04-10T10:59:07.797Z,14.32
2023-04-10T11:01:37.558Z,14.37
2023-04-10T11:04:21.317Z,14.37
2023-04-10T11:06:53.438Z,14.47
2023-04-10T11:09:51.698Z,14.53
2023-04-10T11:12:23.494Z,14.56
2023-04-10T11:15:01.566Z,14.62
2023-04-10T11:17:52.409Z,14.70
2023-04-10T11:20:27.294Z,14.72
2023-04-10T11:23:11.993Z,14.78
2023-04-10T11:25:51.505Z,14.85
2023-04-10T11:28:40.774Z,14.92
2023-04-10T11:31:19.752Z,14.97
2023-04-10T11:33:50.385Z,15.03
2023-04-10T11:36:19.838Z,15.12
2023-04-10T11:38:59.782Z,15.19
2023-04-10T11:41:30.890Z,15.25
2023-04-10T11:44:01.576Z,15.28
2023-04-10T11:46:32.728Z,15.34
2023-04-10T11:49:04.129Z,15.35
2023-04-10T11:51:34.355Z,15.38
2023-04-10T11:54:08.641Z,15.47
2023-04-10T11:56:39.367Z,15.52
2023-04-10T11:59:11.401Z,15.55
2023-04-10T12:01:43.223Z,15.59
2023-04-10T12:04:17.373Z,15.65
2023-04-10T12:06:48.505Z,15.66
2023-04-10T12:09:20.020Z,15.74
2023-04-10T12:11:53.410Z,15.75
2023-04-10T12:14:24.237Z,15.75
2023-04-10T12:16:54.988Z,15.78
2023-04-10T12:19:24.844Z,15.89
2023-04-10T12:21:54.410Z,15.95
2023-04-10T12:24:42.757Z,16.05
2023-04-10T12:27:18.317Z,16.08
2023-04-10T12:29:48.244Z,16.13
2023-04-10T12:32:19.207Z,16.19
2023-04-10T12:34:52.758Z,16.28
2023-04-10T12:37:22.165Z,16.32
2023-04-10T12:39:51.939Z,16.39
2023-04-10T12:42:22.955Z,16.44
2023-04-10T12:44:54.303Z,16.49
2023-04-10T12:47:25.397Z,16.57
2023-04-10T12:50:08.537Z,16.64
2023-04-10T12:52:38.686Z,16.69
2023-04-10T12:55:14.336Z,16.72
2023-04-10T12:57:45.209Z,16.77
2023-04-10T13:00:18.536Z,16.86
2023-04-10T13:02:50.143Z,16.89
2023-04-10T13:05:21.696Z,16.90
2023-04-10T13:07:52.966Z,16.95
2023-04-10T13:10:24.526Z,17.00
2023-04-10T13:12:53.973Z,16.95
2023-04-10T13:15:24.462Z,16.95
2023-04-10T13:17:55.459Z,17.01
2023-04-10T13:20:25.442Z,17.04
2023-04-10T13:22:54.758Z,17.07
2023-04-10T13:25:24.111Z,17.14
2023-04-10T13:27:53.172Z,17.18
2023-04-10T13:30:22.326Z,17.18
2023-04-10T13:32:51.538Z,17.27
2023-04-10T13:35:22.420Z,17.41
2023-04-10T13:37:54.337Z,17.60
2023-04-10T13:40:24.175Z,17.82
2023-04-10T13:42:53.411Z,18.16
2023-04-10T13:45:23.038Z,18.57
2023-04-10T13:47:52.411Z,19.07
2023-04-10T13:50:23.590Z,19.60
2023-04-10T13:52:53.767Z,20.13
2023-04-10T13:55:23.560Z,20.75
2023-04-10T13:57:53.303Z,21.34
2023-04-10T14:00:23.406Z,21.83
2023-04-10T14:02:53.145Z,22.44
2023-04-10T14:05:24.319Z,22.87
2023-04-10T14:07:56.974Z,23.23
2023-04-10T14:10:26.571Z,23.63
2023-04-10T14:12:55.955Z,24.09
2023-04-10T14:15:25.522Z,24.47
2023-04-10T14:17:55.048Z,24.87
2023-04-10T14:20:26.063Z,25.20
2023-04-10T14:22:55.363Z,25.52
2023-04-10T14:25:24.803Z,25.77
2023-04-10T14:27:54.532Z,26.13
2023-04-10T14:30:26.013Z,26.46
2023-04-10T14:32:55.331Z,26.64
2023-04-10T14:35:26.152Z,26.82
2023-04-10T14:37:55.657Z,26.95
2023-04-10T14:40:26.452Z,27.20
2023-04-10T14:42:55.805Z,27.23
2023-04-10T14:45:25.959Z,27.29
2023-04-10T14:47:55.885Z,27.39
2023-04-10T14:50:27.009Z,27.55
2023-04-10T14:52:56.195Z,27.68
2023-04-10T14:55:25.848Z,27.73
2023-04-10T14:57:56.602Z,27.82
2023-04-10T15:00:29.772Z,27.99
2023-04-10T15:03:00.419Z,28.20
2023-04-10T15:05:35.465Z,28.20
2023-04-10T15:08:11.181Z,28.33
2023-04-10T15:10:43.928Z,28.21
2023-04-10T15:13:13.330Z,28.26
2023-04-10T15:15:43.019Z,28.46
2023-04-10T15:18:12.705Z,28.61
2023-04-10T15:20:43.775Z,28.69
2023-04-10T15:23:13.038Z,28.53
2023-04-10T15:25:42.970Z,28.72
2023-04-10T15:28:12.196Z,28.97
2023-04-10T15:30:48.728Z,28.92
2023-04-10T15:33:18.476Z,28.95
2023-04-10T15:35:52.932Z,29.10
2023-04-10T15:38:26.127Z,29.24
2023-04-10T15:40:55.701Z,29.10
2023-04-10T15:43:24.897Z,29.00
2023-04-10T15:45:54.260Z,28.98
2023-04-10T15:48:27.739Z,28.98
2023-04-10T15:50:58.578Z,28.88
2023-04-10T15:53:30.855Z,28.79
2023-04-10T15:56:00.668Z,28.80
2023-04-10T15:58:30.484Z,28.79
2023-04-10T16:01:00.604Z,28.78
2023-04-10T16:03:32.257Z,28.65
2023-04-10T16:06:03.360Z,28.57
2023-04-10T16:08:32.741Z,28.58
2023-04-10T16:11:03.450Z,28.51
2023-04-10T16:13:34.225Z,28.53
2023-04-10T16:16:08.258Z,28.54
2023-04-10T16:18:37.945Z,28.33
2023-04-10T16:21:13.048Z,28.15
2023-04-10T16:23:46.644Z,28.16
2023-04-10T16:26:19.622Z,27.80
2023-04-10T16:28:51.729Z,27.50
2023-04-10T16:31:21.463Z,27.44
2023-04-10T16:33:51.747Z,27.25
2023-04-10T16:36:22.807Z,26.70
2023-04-10T16:38:52.039Z,26.33
2023-04-10T16:41:23.000Z,25.99
2023-04-10T16:43:52.517Z,25.59
2023-04-10T16:46:23.752Z,25.12
2023-04-10T16:48:53.591Z,24.40
2023-04-10T16:51:24.841Z,24.09
2023-04-10T16:53:55.554Z,23.62
2023-04-10T16:56:26.431Z,23.12
2023-04-10T16:59:05.489Z,22.68
2023-04-10T17:01:39.804Z,22.25
2023-04-10T17:04:10.068Z,21.74
2023-04-10T17:06:41.315Z,21.33
2023-04-10T17:09:10.612Z,20.95
2023-04-10T17:11:40.357Z,20.55
2023-04-10T17:14:10.646Z,20.14
2023-04-10T17:16:40.710Z,19.74
2023-04-10T17:19:10.725Z,19.35
2023-04-10T17:21:41.922Z,19.02
2023-04-10T17:24:11.392Z,18.68
2023-04-10T17:26:42.894Z,18.34
2023-04-10T17:29:12.405Z,18.03
2023-04-10T17:31:42.144Z,17.73
2023-04-10T17:34:11.510Z,17.48
2023-04-10T17:36:42.730Z,17.21
2023-04-10T17:39:12.266Z,16.93
2023-04-10T17:41:41.728Z,16.68
2023-04-10T17:44:10.691Z,16.49
2023-04-10T17:46:40.396Z,16.22
2023-04-10T17:49:09.479Z,16.02
2023-04-10T17:51:40.660Z,15.76
2023-04-10T17:54:11.814Z,15.53
2023-04-10T17:56:42.482Z,15.31
2023-04-10T17:59:12.668Z,15.09
2023-04-10T18:01:42.639Z,14.93
2023-04-10T18:04:12.140Z,14.79
2023-04-10T18:06:48.987Z,14.61
2023-04-10T18:09:20.315Z,14.43
2023-04-10T18:11:50.952Z,14.21
2023-04-10T18:14:20.397Z,14.05
2023-04-10T18:16:50.361Z,13.89
2023-04-10T18:19:21.298Z,13.73
2023-04-10T18:21:51.732Z,13.51
2023-04-10T18:24:22.676Z,13.22
2023-04-10T18:26:52.477Z,13.04
2023-04-10T18:29:22.811Z,12.89
2023-04-10T18:31:52.932Z,12.74
2023-04-10T18:34:26.954Z,12.68
2023-04-10T18:36:59.525Z,12.50
2023-04-10T18:39:31.595Z,12.34
2023-04-10T18:42:04.028Z,12.11
2023-04-10T18:44:34.872Z,11.98
2023-04-10T18:47:06.442Z,11.92
2023-04-10T18:49:38.421Z,11.80
2023-04-10T18:52:08.614Z,11.67
2023-04-10T18:54:41.703Z,11.50
2023-04-10T18:57:13.932Z,11.37
2023-04-10T18:59:43.693Z,11.25
2023-04-10T19:02:15.788Z,11.11
2023-04-10T19:04:45.575Z,10.97
2023-04-10T19:07:15.611Z,10.84
2023-04-10T19:09:50.572Z,10.73
2023-04-10T19:12:20.310Z,10.63
2023-04-10T19:14:51.282Z,10.48
2023-04-10T19:17:25.207Z,10.39
2023-04-10T19:19:57.523Z,10.33
2023-04-10T19:22:28.289Z,10.20
2023-04-10T19:25:04.063Z,10.08
2023-04-10T19:27:37.579Z,9.99
2023-04-10T19:30:12.892Z,9.89
2023-04-10T19:32:46.727Z,9.79
2023-04-10T19:35:16.843Z,9.62
2023-04-10T19:37:49.942Z,9.50
2023-04-10T19:40:22.801Z,9.40
2023-04-10T19:42:52.771Z,9.30
2023-04-10T19:45:22.254Z,9.25
2023-04-10T19:47:56.241Z,9.10
2023-04-10T19:50:26.293Z,9.02
2023-04-10T19:52:56.561Z,8.92
2023-04-10T19:55:29.968Z,8.86
2023-04-10T19:58:01.070Z,8.82
2023-04-10T20:00:32.438Z,8.74
2023-04-10T20:03:08.781Z,8.66
2023-04-10T20:05:38.341Z,8.63
2023-04-10T20:08:07.601Z,8.60
2023-04-10T20:10:38.861Z,8.45
2023-04-10T20:13:15.419Z,8.35
2023-04-10T20:15:45.505Z,8.29
2023-04-10T20:18:16.380Z,8.18
2023-04-10T20:20:46.739Z,8.10
2023-04-10T20:23:18.066Z,8.00
2023-04-10T20:25:49.007Z,7.90
2023-04-10T20:28:19.157Z,7.78
2023-04-10T20:30:50.328Z,7.67
2023-04-10T20:33:28.317Z,7.56
2023-04-10T20:35:58.383Z,7.52
2023-04-10T20:38:28.281Z,7.41
2023-04-10T20:40:58.816Z,7.27
2023-04-10T20:43:29.027Z,7.26
2023-04-10T20:46:00.868Z,7.24
2023-04-10T20:48:31.335Z,7.14
2023-04-10T20:51:00.810Z,7.09
2023-04-10T20:53:35.378Z,7.01
2023-04-10T20:56:09.260Z,6.95
2023-04-10T20:58:40.556Z,6.89
2023-04-10T21:01:10.921Z,6.76
2023-04-10T21:03:40.852Z,6.75
2023-04-10T21:06:10.758Z,6.73
2023-04-10T21:08:40.136Z,6.61
2023-04-10T21:11:10.899Z,6.54
2023-04-10T21:13:40.423Z,6.49
2023-04-10T21:16:10.006Z,6.41
2023-04-10T21:18:39.585Z,6.37
2023-04-10T21:21:09.503Z,6.32
2023-04-10T21:23:39.080Z,6.29
2023-04-10T21:26:10.229Z,6.22
2023-04-10T21:28:39.688Z,6.17
2023-04-10T21:31:09.032Z,6.13
2023-04-10T21:33:38.311Z,6.13
2023-04-10T21:36:08.117Z,6.05
2023-04-10T21:38:37.759Z,5.98
2023-04-10T21:41:07.208Z,5.86
2023-04-10T21:43:38.821Z,5.89
2023-04-10T21:46:08.906Z,5.78
2023-04-10T21:48:38.522Z,5.73
2023-04-10T21:51:07.916Z,5.66
2023-04-10T21:53:37.177Z,5.70
2023-04-10T21:56:06.810Z,5.63
2023-04-10T21:58:38.173Z,5.51
2023-04-10T22:01:09.155Z,5.47
2023-04-10T22:03:39.151Z,5.44
2023-04-10T22:06:08.943Z,5.41
2023-04-10T22:08:40.162Z,5.39
2023-04-10T22:11:09.731Z,5.36
2023-04-10T22:13:40.287Z,5.35
2023-04-10T22:16:10.213Z,5.27
2023-04-10T22:18:39.327Z,5.28
2023-04-10T22:21:09.242Z,5.16
2023-04-10T22:23:38.640Z,5.11
2023-04-10T22:26:08.240Z,5.08
2023-04-10T22:28:37.419Z,5.14
2023-04-10T22:31:14.751Z,5.04
2023-04-10T22:33:44.521Z,4.98
2023-04-10T22:36:14.234Z,4.93
2023-04-10T22:38:44.061Z,4.93
2023-04-10T22:41:13.193Z,4.90
2023-04-10T22:43:42.561Z,4.86
2023-04-10T22:46:13.140Z,4.86
2023-04-10T22:48:43.158Z,4.77
2023-04-10T22:51:13.500Z,4.74
2023-04-10T22:53:43.219Z,4.74
2023-04-10T22:56:12.788Z,4.65
2023-04-10T22:58:42.431Z,4.63
2023-04-10T23:01:13.404Z,4.58
2023-04-10T23:03:43.210Z,4.60
2023-04-10T23:06:12.382Z,4.61
2023-04-10T23:08:42.352Z,4.51
2023-04-10T23:11:11.511Z,4.39
2023-04-10T23:13:42.699Z,4.34
2023-04-10T23:16:13.612Z,4.42
2023-04-10T23:18:43.138Z,4.44
2023-04-10T23:21:12.724Z,4.38
2023-04-10T23:23:42.103Z,4.36
2023-04-10T23:26:12.211Z,4.34
2023-04-10T23:28:41.972Z,4.31
2023-04-10T23:31:12.631Z,4.26
2023-04-10T23:33:42.170Z,4.25
2023-04-10T23:36:11.703Z,4.25
2023-04-10T23:38:41.392Z,4.25
2023-04-10T23:41:10.712Z,4.22
2023-04-10T23:43:40.233Z,4.17
2023-04-10T23:46:09.802Z,4.11
2023-04-10T23:48:40.439Z,4.14
2023-04-10T23:51:10.366Z,4.10
2023-04-10T23:53:39.945Z,4.01
2023-04-10T23:56:09.918Z,3.97
2023-04-10T23:58:39.463Z,3.99
